Time;durP1;ratioP1;P1;durP2;ratioP2;P2;SDS_P1;SDS_P2;PMS_P1;PMS_P2;Temp;Humidity;BMP_temperature;BMP_pressure;BME280_temperature;BME280_humidity;BME280_pressure;Samples;Min_cycle;Max_cycle;Signal;HPM_P1;HPM_P2
2024/02/14 00:01:14;;;;;;;9.33;8.30;;;2.20;96.10;;;1.22;100.00;98394.19;5066531;28;20483;-75
2024/02/14 00:03:42;;;;;;;12.00;8.40;;;2.10;96.10;;;1.18;100.00;98390.97;5064775;28;20450;-75
2024/02/14 00:06:09;;;;;;;11.57;8.13;;;2.10;96.20;;;1.29;100.00;98403.28;5061720;28;20531;-77
2024/02/14 00:08:37;;;;;;;10.60;7.90;;;2.10;96.80;;;1.34;100.00;98402.81;5048888;28;20466;-77
2024/02/14 00:11:05;;;;;;;10.77;8.60;;;2.20;96.90;;;1.40;100.00;98407.56;5069590;28;20454;-74
2024/02/14 00:13:34;;;;;;;16.03;9.67;;;2.20;96.90;;;1.35;100.00;98413.31;5055124;28;20869;-74
2024/02/14 00:16:01;;;;;;;12.30;9.73;;;2.20;96.90;;;1.31;100.00;98408.44;5068951;28;20463;-76
2024/02/14 00:18:30;;;;;;;15.60;9.33;;;2.20;96.70;;;1.24;100.00;98406.38;5067616;28;20464;-77
2024/02/14 00:20:57;;;;;;;15.90;9.60;;;2.20;96.40;;;1.25;100.00;98400.06;5050714;28;21014;-74
2024/02/14 00:23:24;;;;;;;11.40;8.83;;;2.20;96.60;;;1.30;100.00;98398.78;5068354;28;20471;-75
2024/02/14 00:25:52;;;;;;;10.80;9.10;;;2.20;96.50;;;1.37;100.00;98397.22;5068090;28;20447;-76
2024/02/14 00:28:19;;;;;;;12.93;9.57;;;2.20;96.60;;;1.31;100.00;98403.97;5062250;28;20511;-76
2024/02/14 00:30:46;;;;;;;14.07;9.20;;;2.20;96.10;;;1.25;100.00;98402.72;5068671;28;20456;-76
2024/02/14 00:33:13;;;;;;;12.07;8.47;;;2.20;96.20;;;1.21;100.00;98400.50;5067746;28;20456;-75
2024/02/14 00:35:42;;;;;;;10.70;9.27;;;2.10;95.80;;;1.26;100.00;98398.22;5067808;28;20501;-76
2024/02/14 00:38:09;;;;;;;10.40;8.40;;;2.10;96.50;;;1.23;100.00;98404.69;5067157;28;20459;-74
2024/02/14 00:40:36;;;;;;;9.73;8.27;;;2.10;96.40;;;1.13;100.00;98406.53;5052117;28;20466;-77
2024/02/14 00:43:03;;;;;;;18.50;10.30;;;2.10;96.40;;;1.17;100.00;98404.44;5071308;28;20454;-71
2024/02/14 00:45:31;;;;;;;13.27;8.60;;;2.00;96.50;;;1.18;100.00;98396.28;5068968;28;20458;-77
2024/02/14 00:47:58;;;;;;;12.23;8.40;;;2.10;97.00;;;1.20;100.00;98399.63;5045614;28;20458;-76
2024/02/14 00:50:26;;;;;;;11.10;9.20;;;2.10;96.80;;;1.24;100.00;98400.19;5034761;28;20462;-75
2024/02/14 00:52:54;;;;;;;10.50;9.17;;;2.10;96.90;;;1.21;100.00;98401.31;5051039;28;21215;-75
2024/02/14 00:55:21;;;;;;;11.60;9.30;;;2.20;96.90;;;1.27;100.00;98397.22;5067951;28;20840;-72
2024/02/14 00:57:49;;;;;;;11.83;9.10;;;2.20;96.80;;;1.32;100.00;98392.31;5068622;28;20453;-78
2024/02/14 01:00:17;;;;;;;9.07;8.17;;;2.20;97.20;;;1.29;100.00;98392.63;5067769;28;20944;-77
2024/02/14 01:02:45;;;;;;;9.40;8.50;;;2.30;96.90;;;1.39;100.00;98404.03;5068533;28;20469;-76
2024/02/14 01:05:12;;;;;;;11.70;8.57;;;2.30;96.90;;;1.42;100.00;98408.25;5063364;28;20544;-75
2024/02/14 01:07:39;;;;;;;9.40;8.43;;;2.30;96.30;;;1.47;100.00;98407.81;5067095;28;20830;-76
2024/02/14 01:10:09;;;;;;;10.07;8.93;;;2.40;95.80;;;1.44;100.00;98408.09;5049331;28;20476;-75
2024/02/14 01:12:36;;;;;;;11.33;9.03;;;2.30;95.50;;;1.39;100.00;98409.38;5068435;28;20949;-75
2024/02/14 01:15:04;;;;;;;12.47;8.93;;;2.40;95.30;;;1.48;99.86;98409.50;5067835;28;20838;-76
2024/02/14 01:17:32;;;;;;;13.27;9.07;;;2.30;95.30;;;1.53;99.41;98404.53;5047306;28;20455;-77
2024/02/14 01:20:00;;;;;;;14.73;8.40;;;2.40;95.30;;;1.49;99.92;98400.50;5067643;28;20817;-74
2024/02/14 01:22:27;;;;;;;10.00;8.40;;;2.40;95.10;;;1.54;99.27;98400.91;5049753;28;20464;-75
2024/02/14 01:24:54;;;;;;;9.90;7.90;;;2.40;95.20;;;1.52;98.93;98401.06;5067720;28;20446;-76
2024/02/14 01:27:24;;;;;;;12.27;8.17;;;2.40;94.80;;;1.54;98.89;98408.88;5063034;28;20454;-75
2024/02/14 01:29:51;;;;;;;8.73;7.77;;;2.40;94.50;;;1.48;99.25;98404.97;5059208;28;20459;-75
2024/02/14 01:32:19;;;;;;;8.87;7.70;;;2.40;94.60;;;1.48;99.44;98406.81;5049869;28;20512;-75
2024/02/14 01:34:46;;;;;;;10.63;7.57;;;2.40;94.70;;;1.49;99.42;98406.66;5066839;28;20548;-77
2024/02/14 01:37:13;;;;;;;13.40;8.13;;;2.30;94.70;;;1.51;99.45;98414.50;5049848;28;20473;-75
2024/02/14 01:39:41;;;;;;;9.40;7.63;;;2.40;94.80;;;1.49;99.65;98404.00;5065983;28;20449;-73
2024/02/14 01:42:08;;;;;;;9.90;8.17;;;2.30;94.90;;;1.30;98.85;98366.81;5067923;28;20446;-74
2024/02/14 01:44:37;;;;;;;8.60;7.70;;;2.40;94.80;;;1.58;98.97;98402.28;5064799;28;20942;-75
2024/02/14 01:47:05;;;;;;;10.37;6.90;;;2.40;94.50;;;1.44;99.29;98400.94;5067784;28;20454;-76
2024/02/14 01:49:33;;;;;;;10.47;7.60;;;2.40;94.10;;;1.46;99.47;98398.97;5066244;28;20453;-75
2024/02/14 01:52:04;;;;;;;10.30;7.30;;;2.40;94.10;;;1.47;98.67;98390.00;5065290;28;20470;-76
2024/02/14 01:54:32;;;;;;;9.57;7.93;;;2.40;94.00;;;1.56;98.97;98393.59;5046072;28;20475;-76
2024/02/14 01:57:01;;;;;;;9.10;7.40;;;2.40;94.00;;;1.48;98.98;98398.84;5050709;28;21026;-75
2024/02/14 01:59:29;;;;;;;10.47;7.90;;;2.40;93.80;;;1.55;98.79;98390.09;5061281;28;20463;-77
2024/02/14 02:01:58;;;;;;;9.50;7.27;;;2.40;93.90;;;1.50;99.02;98394.19;5052469;28;20466;-77
2024/02/14 02:04:25;;;;;;;9.37;8.13;;;2.40;94.00;;;1.55;98.31;98387.44;5070065;28;20466;-72
2024/02/14 02:06:56;;;;;;;9.60;6.70;;;2.40;94.20;;;1.72;97.95;98379.63;5071496;28;20463;-75
2024/02/14 02:09:25;;;;;;;10.17;7.50;;;2.50;94.50;;;1.63;97.59;98378.72;5063223;28;20442;-75
2024/02/14 02:11:55;;;;;;;11.00;7.57;;;2.50;93.90;;;1.67;97.89;98382.75;5047728;28;20449;-72
2024/02/14 02:14:23;;;;;;;8.33;6.90;;;2.50;93.80;;;1.64;97.95;98377.72;5066488;28;20887;-77
2024/02/14 02:16:50;;;;;;;8.10;7.30;;;2.50;93.40;;;1.54;98.56;98363.59;5043626;28;20755;-76
2024/02/14 02:19:18;;;;;;;7.73;6.93;;;2.50;93.20;;;1.62;97.57;98376.19;5047639;28;20455;-76
2024/02/14 02:21:46;;;;;;;8.03;7.07;;;2.50;93.20;;;1.65;97.69;98371.41;5066221;28;20456;-77
2024/02/14 02:24:15;;;;;;;10.23;7.10;;;2.50;93.10;;;1.64;97.52;98369.72;5048058;28;20448;-74
2024/02/14 02:26:43;;;;;;;7.57;6.67;;;2.50;93.00;;;1.63;97.79;98365.38;5061077;28;21045;-76
2024/02/14 02:29:11;;;;;;;10.87;7.70;;;2.50;92.90;;;1.58;97.56;98372.97;5065790;28;20507;-76
2024/02/14 02:31:38;;;;;;;7.73;6.97;;;2.50;93.00;;;1.61;97.78;98358.53;5067720;28;20457;-75
2024/02/14 02:34:05;;;;;;;8.30;7.50;;;2.50;93.20;;;1.28;96.99;98305.72;5048510;28;20449;-75
2024/02/14 02:36:33;;;;;;;7.47;6.40;;;2.50;93.20;;;1.66;97.59;98373.06;5066651;28;20486;-75
2024/02/14 02:39:00;;;;;;;7.27;6.63;;;2.50;93.00;;;1.86;96.77;98370.28;5047592;28;20455;-73
2024/02/14 02:41:28;;;;;;;8.00;7.20;;;2.60;93.00;;;1.82;96.37;98371.56;5066701;28;21376;-77
2024/02/14 02:43:56;;;;;;;8.67;6.80;;;2.70;92.60;;;1.86;95.90;98359.63;5048037;28;20462;-74
2024/02/14 02:46:23;;;;;;;8.47;6.57;;;2.70;92.60;;;1.87;95.45;98366.63;5065657;28;20456;-76
2024/02/14 02:48:51;;;;;;;7.10;6.40;;;2.70;92.60;;;1.84;96.44;98361.59;5060754;28;20455;-73
2024/02/14 02:51:19;;;;;;;8.00;7.17;;;2.70;92.60;;;1.70;96.12;98342.47;5046821;28;20456;-77
2024/02/14 02:53:46;;;;;;;13.87;7.10;;;2.70;92.50;;;1.74;97.18;98363.47;5047994;28;20839;-73
2024/02/14 02:56:14;;;;;;;8.20;6.73;;;2.70;92.50;;;1.58;97.66;98375.63;5066458;28;20992;-77
2024/02/14 02:58:44;;;;;;;7.20;6.50;;;2.60;92.40;;;1.70;97.66;98362.97;5065162;28;20457;-75
2024/02/14 03:01:11;;;;;;;11.77;6.23;;;2.60;92.80;;;1.78;97.08;98365.69;5066813;28;20451;-76
2024/02/14 03:03:38;;;;;;;7.47;6.50;;;2.60;92.80;;;1.79;96.59;98351.38;5066054;28;20450;-75
2024/02/14 03:06:07;;;;;;;8.67;6.50;;;2.70;92.50;;;1.87;95.95;98358.63;5045606;28;20458;-76
2024/02/14 03:08:35;;;;;;;8.57;6.80;;;2.70;92.20;;;1.83;96.12;98357.25;5061391;28;20529;-77
2024/02/14 03:11:06;;;;;;;8.40;6.50;;;2.70;91.90;;;1.92;95.68;98356.38;5067597;28;20485;-76
2024/02/14 03:13:33;;;;;;;8.77;6.53;;;2.70;91.90;;;1.77;95.82;98363.19;5065931;28;21019;-74
2024/02/14 03:16:02;;;;;;;8.60;6.10;;;2.70;91.60;;;1.77;96.25;98363.19;5065805;28;20479;-74
2024/02/14 03:18:29;;;;;;;10.40;6.87;;;2.70;91.70;;;1.77;95.76;98363.19;5061848;28;20466;-76
2024/02/14 03:20:56;;;;;;;8.53;6.77;;;2.70;91.90;;;1.72;96.43;98355.66;5048362;28;20449;-74
2024/02/14 03:23:23;;;;;;;9.03;6.70;;;2.70;91.70;;;1.76;96.20;98358.88;5066360;28;20884;-76
2024/02/14 03:25:51;;;;;;;6.57;5.97;;;2.60;91.80;;;1.74;96.11;98352.81;5048271;28;20455;-77
2024/02/14 03:28:19;;;;;;;7.93;6.10;;;2.60;92.00;;;1.70;96.37;98357.63;5065360;28;20488;-76
2024/02/14 03:30:47;;;;;;;7.50;6.07;;;2.60;92.00;;;1.67;96.27;98353.44;5048327;28;20454;-75
2024/02/14 03:33:15;;;;;;;8.13;6.23;;;2.50;92.30;;;1.68;96.42;98354.28;5066792;28;21034;-76
2024/02/14 03:35:43;;;;;;;11.23;6.43;;;2.50;92.10;;;1.67;96.71;98352.63;5070145;28;20483;-75
2024/02/14 03:38:10;;;;;;;7.63;4.90;;;2.50;92.30;;;1.59;96.52;98336.53;5068731;28;20912;-75
2024/02/14 03:40:38;;;;;;;8.83;6.30;;;2.50;92.50;;;1.67;95.79;98357.94;5069661;28;20560;-74
2024/02/14 03:43:05;;;;;;;6.47;5.47;;;2.50;92.20;;;1.62;96.53;98347.72;5069419;28;20456;-74
2024/02/14 03:45:33;;;;;;;9.37;5.70;;;2.50;92.40;;;1.61;96.58;98364.69;5051707;28;20458;-78
2024/02/14 03:48:00;;;;;;;6.20;5.40;;;2.50;92.20;;;1.55;96.51;98343.97;5042342;28;20458;-72
2024/02/14 03:50:29;;;;;;;9.97;5.80;;;2.50;92.40;;;1.63;96.39;98352.06;5049534;28;20487;-78
2024/02/14 03:52:56;;;;;;;7.87;5.23;;;2.50;92.40;;;1.58;97.31;98353.50;5069916;28;20456;-76
2024/02/14 03:55:24;;;;;;;5.47;4.60;;;2.50;92.50;;;1.56;96.70;98353.63;5068617;28;20525;-76
2024/02/14 03:57:51;;;;;;;6.13;5.27;;;2.50;92.40;;;1.63;96.84;98357.41;5049445;28;21154;-77
2024/02/14 04:00:22;;;;;;;7.37;5.40;;;2.50;92.40;;;1.64;96.74;98361.72;5068863;28;20458;-77
2024/02/14 04:02:50;;;;;;;6.70;5.33;;;2.60;92.40;;;1.62;96.72;98358.38;5069663;28;20950;-77
2024/02/14 04:05:18;;;;;;;8.57;5.10;;;2.60;92.30;;;1.64;96.52;98355.56;5069101;28;20464;-74
2024/02/14 04:07:50;;;;;;;5.87;5.37;;;2.60;92.30;;;1.67;96.93;98360.59;5067515;28;20461;-74
2024/02/14 04:10:18;;;;;;;8.43;5.30;;;2.60;92.30;;;1.70;96.48;98369.13;5069526;28;20541;-77
2024/02/14 04:12:45;;;;;;;8.67;5.63;;;2.60;92.30;;;1.65;96.47;98354.56;5053440;28;20457;-77
2024/02/14 04:15:13;;;;;;;8.30;5.80;;;2.60;92.30;;;1.72;96.84;98357.47;5071596;28;20532;-74
2024/02/14 04:17:40;;;;;;;5.87;5.13;;;2.60;92.40;;;1.68;96.98;98365.75;5057991;28;20469;-74
2024/02/14 04:20:10;;;;;;;8.43;5.93;;;2.60;92.50;;;1.65;96.88;98355.41;5079162;28;20445;-74
2024/02/14 04:22:37;;;;;;;8.30;5.50;;;2.60;92.50;;;1.70;97.14;98350.47;5078436;28;20455;-75
2024/02/14 04:25:08;;;;;;;6.10;5.50;;;2.60;92.50;;;1.73;96.25;98349.34;5053920;28;20465;-73
2024/02/14 04:27:35;;;;;;;6.47;5.20;;;2.60;92.40;;;1.68;96.60;98347.13;5077762;28;20562;-75
2024/02/14 04:30:04;;;;;;;8.43;6.33;;;2.60;92.40;;;1.77;96.54;98348.03;5069978;28;20939;-74
2024/02/14 04:32:31;;;;;;;7.13;5.93;;;2.60;92.60;;;1.88;96.33;98354.16;5059709;28;20504;-75
2024/02/14 04:34:59;;;;;;;9.53;5.93;;;2.70;92.30;;;1.93;96.03;98354.53;5053338;28;20475;-77
2024/02/14 04:37:26;;;;;;;6.87;6.17;;;2.80;92.00;;;2.04;95.46;98356.13;5064853;28;20861;-72
2024/02/14 04:39:54;;;;;;;7.33;5.23;;;2.90;91.80;;;2.16;94.53;98352.22;5067825;28;20467;-76
2024/02/14 04:42:24;;;;;;;7.23;5.77;;;3.00;91.60;;;2.35;93.34;98350.38;5053650;28;20454;-76
2024/02/14 04:44:51;;;;;;;8.33;6.27;;;3.10;91.30;;;2.34;92.68;98351.38;5067413;28;20504;-76
2024/02/14 04:47:18;;;;;;;8.33;6.47;;;3.20;90.80;;;2.43;92.83;98368.28;5068293;28;20474;-75
2024/02/14 04:49:45;;;;;;;6.53;5.90;;;3.20;90.50;;;2.38;93.19;98360.75;5068754;28;20497;-76
2024/02/14 04:52:13;;;;;;;7.93;6.40;;;3.20;90.20;;;2.44;92.01;98365.47;5068472;28;21037;-76
2024/02/14 04:54:41;;;;;;;6.20;5.30;;;3.30;90.10;;;2.51;92.03;98377.22;5049295;28;20805;-75
2024/02/14 04:57:08;;;;;;;8.30;5.50;;;3.30;90.30;;;2.61;92.17;98376.25;5069428;28;21016;-76
2024/02/14 04:59:37;;;;;;;6.40;5.80;;;3.40;90.00;;;2.39;91.36;98343.75;5067925;28;20955;-75
2024/02/14 05:02:04;;;;;;;7.67;5.50;;;3.40;89.50;;;2.55;91.30;98372.38;5069318;28;20482;-76
2024/02/14 05:04:31;;;;;;;6.73;5.73;;;3.40;89.70;;;2.62;91.59;98373.44;5067933;28;20453;-74
2024/02/14 05:06:59;;;;;;;7.00;5.03;;;3.40;89.60;;;2.75;91.03;98374.88;5069029;28;20940;-76
2024/02/14 05:09:26;;;;;;;7.53;5.13;;;3.50;89.00;;;2.72;89.89;98378.69;5047886;28;20452;-76
2024/02/14 05:11:53;;;;;;;8.53;5.37;;;3.60;88.60;;;2.83;90.14;98375.75;5044694;28;21084;-77
2024/02/14 05:14:21;;;;;;;7.90;6.13;;;3.60;88.50;;;2.90;88.74;98375.13;5068411;28;20459;-75
2024/02/14 05:16:49;;;;;;;9.10;5.63;;;3.70;88.20;;;2.93;88.72;98364.13;5051501;28;20480;-77
2024/02/14 05:19:16;;;;;;;7.43;5.70;;;3.80;87.40;;;3.00;88.48;98370.50;5043804;28;20506;-74
2024/02/14 05:21:44;;;;;;;9.13;5.60;;;3.80;87.00;;;2.93;89.30;98381.00;5068822;28;20826;-76
2024/02/14 05:24:11;;;;;;;7.50;5.57;;;3.80;87.10;;;3.11;88.78;98362.25;5068065;28;20995;-75
2024/02/14 05:26:38;;;;;;;7.60;5.20;;;3.80;87.30;;;3.27;87.23;98376.66;5071012;28;20452;-76
2024/02/14 05:29:06;;;;;;;6.63;5.90;;;4.00;86.70;;;3.24;86.74;98382.31;5061880;28;20467;-73
2024/02/14 05:31:45;;;;;;;7.97;6.60;;;4.00;86.60;;;3.33;86.68;98386.69;5069184;28;20470;-78
2024/02/14 05:34:14;;;;;;;7.10;5.87;;;4.00;86.50;;;3.20;87.08;98391.63;5049369;28;20461;-76
2024/02/14 05:36:42;;;;;;;6.87;5.50;;;4.00;86.20;;;3.33;86.67;98394.72;5067195;28;20498;-77
2024/02/14 05:39:09;;;;;;;8.33;6.27;;;4.10;86.40;;;3.32;87.07;98390.38;5065936;28;20914;-76
2024/02/14 05:41:37;;;;;;;8.80;5.70;;;4.10;86.10;;;3.43;86.36;98397.25;5067750;28;20520;-76
2024/02/14 05:44:04;;;;;;;6.47;5.77;;;4.20;86.00;;;3.33;87.14;98397.38;5066868;28;20454;-76
2024/02/14 05:46:32;;;;;;;10.10;6.20;;;4.20;85.90;;;3.14;88.61;98384.28;5067567;28;20453;-75
2024/02/14 05:48:59;;;;;;;6.97;5.73;;;4.10;86.00;;;3.11;88.83;98393.44;5065466;28;20479;-76
2024/02/14 05:51:27;;;;;;;7.67;5.60;;;4.00;86.80;;;3.30;88.53;98395.03;5067919;28;20907;-77
2024/02/14 05:53:55;;;;;;;9.37;6.30;;;4.00;86.80;;;3.30;88.48;98387.03;5058277;28;20460;-75
2024/02/14 05:56:22;;;;;;;6.70;5.17;;;4.10;87.10;;;3.21;89.27;98387.97;5061278;28;20485;-78
2024/02/14 05:58:49;;;;;;;9.77;5.70;;;4.10;87.10;;;3.17;88.66;98378.63;5065615;28;20509;-77
2024/02/14 06:01:17;;;;;;;8.33;5.63;;;4.00;87.20;;;3.38;88.51;98388.91;5062503;28;20447;-75
2024/02/14 06:03:44;;;;;;;9.23;6.20;;;4.10;87.20;;;3.44;88.48;98392.78;5066877;28;20944;-75
2024/02/14 06:06:11;;;;;;;9.07;6.30;;;4.10;87.30;;;3.55;87.54;98381.78;5067326;28;20944;-77
2024/02/14 06:08:40;;;;;;;9.53;6.10;;;4.20;87.30;;;3.37;87.13;98385.38;5043767;28;20460;-73
2024/02/14 06:11:07;;;;;;;6.80;6.10;;;4.30;86.40;;;3.53;87.22;98394.47;5042763;28;20479;-77
2024/02/14 06:13:35;;;;;;;10.67;6.30;;;4.30;86.40;;;3.64;87.46;98394.16;5048732;28;20432;-77
2024/02/14 06:16:02;;;;;;;7.37;5.97;;;4.40;86.60;;;3.64;86.91;98393.31;5066987;28;20472;-76
2024/02/14 06:18:30;;;;;;;7.97;5.50;;;4.40;86.20;;;3.68;87.23;98405.38;5034220;28;20448;-74
2024/02/14 06:20:57;;;;;;;7.53;5.70;;;4.40;86.30;;;3.68;86.92;98398.19;5049514;28;20460;-75
2024/02/14 06:23:24;;;;;;;8.20;5.70;;;4.50;86.50;;;3.59;86.89;98401.84;5066568;28;20832;-74
2024/02/14 06:25:53;;;;;;;6.93;5.70;;;4.40;85.70;;;3.52;86.60;98400.81;5065833;28;20455;-78
2024/02/14 06:28:20;;;;;;;10.20;5.83;;;4.40;85.50;;;3.66;86.03;98402.88;5040556;28;20529;-76
2024/02/14 06:30:48;;;;;;;7.33;5.57;;;4.40;85.60;;;3.61;86.65;98405.19;5051868;28;20451;-76
2024/02/14 06:33:15;;;;;;;8.87;6.07;;;4.40;85.80;;;3.64;86.00;98404.00;5070226;28;20495;-75
2024/02/14 06:35:42;;;;;;;7.87;5.83;;;4.50;85.40;;;3.66;85.57;98402.03;5067036;28;20455;-75
2024/02/14 06:38:09;;;;;;;8.90;5.80;;;4.50;85.30;;;3.61;86.79;98404.34;5065939;28;20475;-77
2024/02/14 06:40:36;;;;;;;8.20;5.77;;;4.50;85.60;;;3.57;87.16;98408.34;5049393;28;20455;-75
2024/02/14 06:43:06;;;;;;;9.20;5.53;;;4.40;85.60;;;3.56;86.78;98417.34;5048225;28;20466;-72
2024/02/14 06:45:33;;;;;;;11.77;5.60;;;4.40;85.60;;;3.50;86.95;98410.81;5047988;28;21140;-75
2024/02/14 06:48:01;;;;;;;9.63;5.77;;;4.40;85.90;;;3.48;86.80;98407.47;5065877;28;20453;-71
2024/02/14 06:50:29;;;;;;;6.10;5.50;;;4.40;85.50;;;3.46;86.99;98402.28;5048704;28;20801;-75
2024/02/14 06:52:59;;;;;;;6.73;6.00;;;4.40;85.80;;;3.57;87.03;98408.34;5066718;28;20456;-76
2024/02/14 06:55:26;;;;;;;7.00;5.83;;;4.50;85.70;;;3.58;86.57;98410.00;5066390;28;20821;-75
2024/02/14 06:57:54;;;;;;;9.27;5.80;;;4.40;85.90;;;3.60;87.16;98403.53;5048052;28;20510;-73
2024/02/14 07:00:24;;;;;;;10.00;5.77;;;4.50;85.40;;;3.61;86.66;98393.66;5066220;28;20520;-77
2024/02/14 07:02:51;;;;;;;9.20;6.93;;;4.50;85.40;;;3.71;86.49;98414.91;5066369;28;20482;-76
2024/02/14 07:05:18;;;;;;;8.43;6.13;;;4.60;85.50;;;3.77;85.67;98409.75;5063238;28;20466;-76
2024/02/14 07:07:46;;;;;;;6.47;5.63;;;4.70;85.20;;;3.88;85.36;98411.31;5067288;28;20544;-75
2024/02/14 07:10:13;;;;;;;6.80;5.40;;;4.70;85.20;;;4.09;85.25;98407.31;5052286;28;20443;-76
2024/02/14 07:12:41;;;;;;;7.50;5.93;;;4.80;85.10;;;3.96;85.39;98403.28;5074520;28;20482;-77
2024/02/14 07:15:09;;;;;;;11.90;6.50;;;4.80;84.60;;;4.13;84.16;98387.28;5052278;28;20539;-75
2024/02/14 07:17:38;;;;;;;11.00;7.47;;;4.90;84.60;;;4.51;83.62;98411.72;5070254;28;21339;-75
2024/02/14 07:20:08;;;;;;;11.07;7.03;;;5.10;84.50;;;4.48;81.88;98393.34;5075723;28;20459;-75
2024/02/14 07:22:36;;;;;;;11.67;6.50;;;5.30;83.50;;;5.07;86.80;98400.28;5070246;28;20547;-76
2024/02/14 07:25:04;;;;;;;12.50;6.63;;;5.60;86.70;;;4.80;82.09;98397.00;5069507;28;20450;-76
2024/02/14 07:27:32;;;;;;;8.40;6.67;;;5.60;83.50;;;4.80;83.38;98394.31;5049189;28;20487;-76
2024/02/14 07:29:59;;;;;;;9.00;6.10;;;5.50;84.10;;;4.57;82.76;98387.97;5051259;28;20513;-75
2024/02/14 07:32:27;;;;;;;9.40;5.90;;;5.60;83.80;;;4.26;83.89;98357.38;5052472;28;20465;-78
2024/02/14 07:34:56;;;;;;;11.90;7.10;;;5.40;83.70;;;4.73;83.07;98390.63;5064212;28;20460;-76
2024/02/14 07:37:23;;;;;;;8.17;6.90;;;5.50;84.00;;;4.80;83.53;98397.00;5051352;28;20780;-77
2024/02/14 07:39:51;;;;;;;7.07;6.37;;;5.60;84.30;;;4.93;82.25;98368.88;5070185;28;20838;-77
2024/02/14 07:42:18;;;;;;;10.63;7.07;;;5.70;84.30;;;5.15;81.18;98406.66;5072500;28;20456;-76
2024/02/14 07:44:45;;;;;;;9.57;6.73;;;5.80;83.60;;;5.19;81.82;98408.81;5069133;28;21164;-76
2024/02/14 07:47:13;;;;;;;11.40;7.17;;;6.00;83.50;;;5.41;80.97;98402.91;5051916;28;20452;-76
2024/02/14 07:49:40;;;;;;;8.33;6.50;;;6.00;83.50;;;5.48;80.68;98395.81;5050580;28;20437;-77
2024/02/14 07:52:09;;;;;;;10.07;6.50;;;6.20;83.30;;;5.46;79.98;98403.22;5065134;28;20453;-77
2024/02/14 07:54:37;;;;;;;12.40;6.67;;;6.30;82.50;;;5.57;79.61;98397.47;5066763;28;20460;-75
2024/02/14 07:57:05;;;;;;;11.97;7.13;;;6.30;82.70;;;5.44;80.67;98403.38;5035137;28;20476;-77
2024/02/14 07:59:32;;;;;;;7.47;6.70;;;6.20;82.60;;;5.23;81.19;98396.75;5068620;28;20448;-77
2024/02/14 08:01:59;;;;;;;12.07;6.93;;;6.20;82.70;;;5.23;82.65;98404.78;5067435;28;20526;-76
2024/02/14 08:04:27;;;;;;;13.87;8.77;;;6.10;83.30;;;5.33;82.05;98398.41;5069136;28;20522;-77
2024/02/14 08:06:54;;;;;;;8.93;6.57;;;6.20;83.20;;;5.34;81.47;98400.91;5066580;28;20451;-77
2024/02/14 08:09:23;;;;;;;7.53;6.30;;;6.20;83.00;;;5.46;80.69;98409.41;5063567;28;20456;-79
2024/02/14 08:11:52;;;;;;;10.80;7.53;;;6.40;82.80;;;5.65;80.32;98420.72;5053037;28;20451;-78
2024/02/14 08:14:20;;;;;;;11.00;7.40;;;6.40;82.70;;;6.01;79.45;98420.25;5050794;28;20441;-77
2024/02/14 08:16:47;;;;;;;13.40;7.30;;;6.70;82.60;;;5.88;78.59;98412.75;5058093;28;20480;-76
2024/02/14 08:19:15;;;;;;;8.17;6.47;;;6.70;81.90;;;5.90;78.50;98418.78;5058283;28;20456;-76
2024/02/14 08:21:43;;;;;;;9.33;7.00;;;6.70;81.90;;;6.00;77.72;98420.41;5070326;28;20542;-77
2024/02/14 08:24:10;;;;;;;11.20;7.07;;;6.70;81.70;;;6.00;78.24;98423.91;5068966;28;20448;-76
2024/02/14 08:26:38;;;;;;;10.83;7.40;;;6.70;81.70;;;6.04;78.41;98421.75;5050806;28;20453;-77
2024/02/14 08:29:06;;;;;;;10.50;6.73;;;6.80;81.60;;;5.93;78.68;98415.72;5068056;28;20444;-77
2024/02/14 08:31:34;;;;;;;10.70;6.80;;;6.70;81.60;;;5.73;79.53;98419.88;5051145;28;20553;-76
2024/02/14 08:34:02;;;;;;;11.03;7.03;;;6.60;81.70;;;5.74;79.30;98426.91;5050338;28;20900;-76
2024/02/14 08:36:29;;;;;;;8.13;7.30;;;6.60;81.80;;;5.90;78.63;98421.44;5068788;28;20456;-75
2024/02/14 08:38:56;;;;;;;7.50;6.80;;;6.60;81.70;;;5.86;79.38;98430.88;5069105;28;20457;-76
2024/02/14 08:41:24;;;;;;;8.20;6.30;;;6.70;82.00;;;5.90;79.42;98437.53;5073499;28;20518;-78
2024/02/14 08:43:53;;;;;;;7.57;6.80;;;6.70;82.20;;;5.75;80.88;98437.44;5071884;28;20450;-76
2024/02/14 08:46:20;;;;;;;11.67;6.67;;;6.60;82.40;;;6.00;80.84;98429.28;5061130;28;20452;-76
2024/02/14 08:48:48;;;;;;;9.60;7.33;;;6.70;82.90;;;5.96;81.80;98430.66;5079252;28;20449;-75
2024/02/14 08:51:15;;;;;;;10.57;7.20;;;6.80;83.20;;;5.96;81.25;98410.00;5080382;28;20505;-77
2024/02/14 08:53:43;;;;;;;8.40;6.77;;;6.80;83.10;;;5.83;80.98;98407.06;5071917;28;20448;-78
2024/02/14 08:56:11;;;;;;;10.87;6.70;;;6.80;82.90;;;5.84;80.54;98414.13;5068954;28;20507;-77
2024/02/14 08:58:38;;;;;;;10.33;6.87;;;6.80;82.60;;;6.09;80.04;98411.31;5049440;28;20506;-77
2024/02/14 09:01:07;;;;;;;8.17;7.10;;;6.90;82.70;;;6.56;79.18;98427.44;5050763;28;20576;-77
2024/02/14 09:03:34;;;;;;;8.77;6.63;;;7.10;82.80;;;6.49;78.79;98425.50;5050349;28;20607;-77
2024/02/14 09:06:03;;;;;;;9.73;6.93;;;7.20;82.20;;;6.51;79.24;98415.41;5050595;28;20449;-77
2024/02/14 09:08:32;;;;;;;8.47;6.70;;;7.30;82.60;;;6.61;78.74;98400.91;5049034;28;20595;-77
2024/02/14 09:10:59;;;;;;;11.27;7.10;;;7.30;82.60;;;6.83;77.68;98434.13;5050727;28;20449;-76
2024/02/14 09:13:28;;;;;;;7.93;5.67;;;7.50;82.00;;;6.72;77.67;98411.19;5067802;28;20457;-77
2024/02/14 09:15:55;;;;;;;8.60;6.30;;;7.50;81.80;;;6.55;77.73;98402.47;5050425;28;20467;-76
2024/02/14 09:18:25;;;;;;;7.40;5.80;;;7.50;81.60;;;6.62;78.25;98416.00;5067145;28;20788;-77
2024/02/14 09:20:52;;;;;;;9.67;5.70;;;7.50;81.90;;;7.07;77.33;98427.69;5060612;28;20464;-77
2024/02/14 09:23:22;;;;;;;8.80;5.77;;;7.70;81.80;;;7.42;75.14;98424.47;5045815;28;20458;-76
2024/02/14 09:25:49;;;;;;;10.47;6.87;;;7.90;81.30;;;7.42;74.81;98420.94;5050411;28;20462;-76
2024/02/14 09:28:17;;;;;;;7.77;6.27;;;8.00;80.70;;;7.35;75.18;98421.69;5046297;28;20445;-79
2024/02/14 09:30:45;;;;;;;8.20;6.00;;;8.10;80.60;;;7.48;74.57;98422.88;5067699;28;20472;-78
2024/02/14 09:33:12;;;;;;;12.30;7.00;;;8.10;80.50;;;7.69;73.68;98418.63;5067215;28;20492;-76
2024/02/14 09:35:44;;;;;;;6.80;5.57;;;8.30;80.40;;;7.75;72.95;98420.56;5049556;28;20454;-78
2024/02/14 09:38:12;;;;;;;6.37;5.77;;;8.40;79.80;;;8.04;71.63;98416.16;5066191;28;20484;-76
2024/02/14 09:40:40;;;;;;;8.47;5.70;;;8.70;79.60;;;7.81;73.08;98427.91;5049885;28;20607;-77
2024/02/14 09:43:18;;;;;;;8.23;6.40;;;8.50;79.40;;;7.77;72.77;98419.34;5067098;28;20518;-76
2024/02/14 09:45:46;;;;;;;6.77;5.60;;;8.50;79.30;;;8.04;71.35;98424.22;5049862;28;20521;-76
2024/02/14 09:48:14;;;;;;;7.20;5.07;;;8.60;79.00;;;8.12;71.27;98407.97;5066396;28;20457;-77
2024/02/14 09:50:43;;;;;;;8.37;5.90;;;8.80;78.70;;;8.22;71.13;98430.03;5067528;28;20461;-78
2024/02/14 09:53:11;;;;;;;10.60;6.37;;;8.90;78.40;;;8.97;71.53;98426.19;5064121;28;20457;-77
2024/02/14 09:55:40;;;;;;;10.03;5.47;;;9.30;79.60;;;8.46;68.36;98419.06;5065872;28;20832;-77
2024/02/14 09:58:08;;;;;;;8.27;6.37;;;9.30;77.20;;;8.77;68.08;98432.25;5047450;28;20478;-75
2024/02/14 10:00:36;;;;;;;12.40;5.70;;;9.30;77.40;;;8.52;68.66;98439.91;5070344;28;20457;-76
2024/02/14 10:03:04;;;;;;;9.70;5.23;;;9.20;77.10;;;8.52;69.47;98431.81;5064616;28;20456;-74
2024/02/14 10:05:32;;;;;;;12.03;5.27;;;9.10;77.50;;;8.76;68.98;98440.53;5066922;28;20445;-74
2024/02/14 10:08:01;;;;;;;7.23;4.90;;;9.20;77.40;;;9.33;67.58;98430.63;5065935;28;20471;-75
2024/02/14 10:10:29;;;;;;;7.83;5.07;;;9.60;77.40;;;9.10;66.23;98430.88;5066772;28;20448;-76
2024/02/14 10:12:56;;;;;;;6.93;5.80;;;9.90;76.00;;;9.05;67.17;98431.47;5069243;28;20460;-75
2024/02/14 10:15:24;;;;;;;7.10;4.97;;;9.80;76.00;;;8.83;67.51;98427.13;5069556;28;20459;-77
2024/02/14 10:17:51;;;;;;;7.97;5.13;;;9.50;76.00;;;8.54;68.07;98380.44;5051012;28;20482;-74
2024/02/14 10:20:19;;;;;;;7.17;5.40;;;9.50;76.30;;;8.85;67.51;98427.75;5066814;28;20445;-75
2024/02/14 10:22:48;;;;;;;5.50;4.90;;;9.60;76.30;;;8.89;68.19;98439.81;5067790;28;20973;-76
2024/02/14 10:25:18;;;;;;;9.67;5.10;;;9.60;76.40;;;8.85;68.56;98433.97;5048441;28;20432;-77
2024/02/14 10:27:49;;;;;;;6.97;6.00;;;9.70;76.40;;;8.81;68.83;98431.88;5044593;28;20928;-77
2024/02/14 10:30:16;;;;;;;7.40;4.90;;;9.60;76.30;;;9.15;68.48;98439.19;5048688;28;20448;-77
2024/02/14 10:32:47;;;;;;;5.57;4.70;;;9.80;76.40;;;9.49;66.26;98425.94;5049103;28;20458;-77